createdAt,value
2022-10-05T00:01:12.044Z,21.30
2022-10-05T00:03:38.375Z,21.29
2022-10-05T00:06:04.777Z,21.27
2022-10-05T00:08:31.099Z,21.24
2022-10-05T00:10:57.447Z,21.23
2022-10-05T00:13:23.781Z,21.15
2022-10-05T00:15:50.127Z,21.14
2022-10-05T00:18:16.463Z,21.10
2022-10-05T00:20:42.792Z,21.06
2022-10-05T00:23:09.155Z,21.03
2022-10-05T00:25:35.531Z,21.03
2022-10-05T00:28:01.925Z,21.03
2022-10-05T00:30:28.265Z,21.03
2022-10-05T00:32:59.336Z,21.00
2022-10-05T00:35:26.072Z,20.98
2022-10-05T00:37:52.432Z,21.00
2022-10-05T00:40:18.795Z,20.99
2022-10-05T00:42:45.124Z,20.95
2022-10-05T00:45:11.473Z,20.93
2022-10-05T00:47:37.857Z,20.91
2022-10-05T00:50:04.179Z,20.90
2022-10-05T00:52:30.495Z,20.89
2022-10-05T00:54:56.812Z,20.87
2022-10-05T00:57:23.143Z,20.85
2022-10-05T00:59:49.466Z,20.86
2022-10-05T01:02:15.815Z,20.85
2022-10-05T01:04:42.175Z,20.82
2022-10-05T01:07:08.519Z,20.81
2022-10-05T01:09:34.865Z,20.80
2022-10-05T01:12:01.193Z,20.79
2022-10-05T01:14:27.560Z,20.77
2022-10-05T01:16:53.942Z,20.78
2022-10-05T01:19:20.321Z,20.80
2022-10-05T01:21:46.655Z,20.79
2022-10-05T01:24:12.962Z,20.77
2022-10-05T01:26:40.166Z,20.75
2022-10-05T01:29:06.534Z,20.74
2022-10-05T01:31:33.035Z,20.73
2022-10-05T01:33:59.405Z,20.77
2022-10-05T01:36:25.749Z,20.75
2022-10-05T01:38:52.088Z,20.76
2022-10-05T01:41:18.420Z,20.74
2022-10-05T01:43:44.753Z,20.73
2022-10-05T01:46:11.155Z,20.73
2022-10-05T01:48:37.552Z,20.73
2022-10-05T01:51:03.899Z,20.73
2022-10-05T01:53:30.258Z,20.71
2022-10-05T01:55:56.601Z,20.71
2022-10-05T01:58:22.919Z,20.70
2022-10-05T02:00:49.298Z,20.71
2022-10-05T02:03:16.502Z,20.69
2022-10-05T02:05:42.843Z,20.70
2022-10-05T02:08:09.178Z,20.71
2022-10-05T02:10:37.525Z,20.73
2022-10-05T02:13:03.904Z,20.70
2022-10-05T02:15:30.275Z,20.70
2022-10-05T02:17:56.631Z,20.70
2022-10-05T02:20:22.960Z,20.70
2022-10-05T02:22:49.303Z,20.67
2022-10-05T02:25:15.612Z,20.65
2022-10-05T02:27:41.958Z,20.62
2022-10-05T02:30:11.557Z,20.64
2022-10-05T02:32:40.503Z,20.62
2022-10-05T02:35:06.852Z,20.62
2022-10-05T02:37:33.212Z,20.61
2022-10-05T02:39:59.522Z,20.63
2022-10-05T02:42:25.870Z,20.62
2022-10-05T02:44:52.223Z,20.61
2022-10-05T02:47:18.565Z,20.61
2022-10-05T02:49:44.909Z,20.59
2022-10-05T02:52:11.240Z,20.58
2022-10-05T02:54:37.583Z,20.60
2022-10-05T02:57:03.933Z,20.59
2022-10-05T02:59:30.268Z,20.59
2022-10-05T03:01:56.652Z,20.60
2022-10-05T03:04:23.017Z,20.60
2022-10-05T03:06:49.410Z,20.58
2022-10-05T03:09:15.754Z,20.58
2022-10-05T03:11:42.097Z,20.59
2022-10-05T03:14:08.442Z,20.58
2022-10-05T03:16:34.802Z,20.57
2022-10-05T03:19:01.138Z,20.58
2022-10-05T03:21:27.462Z,20.57
2022-10-05T03:23:53.803Z,20.56
2022-10-05T03:26:21.021Z,20.54
2022-10-05T03:28:47.342Z,20.54
2022-10-05T03:31:14.615Z,20.53
2022-10-05T03:33:40.975Z,20.53
2022-10-05T03:36:07.339Z,20.52
2022-10-05T03:38:33.740Z,20.57
2022-10-05T03:41:00.072Z,20.54
2022-10-05T03:43:26.413Z,20.53
2022-10-05T03:45:52.800Z,20.54
2022-10-05T03:48:19.163Z,20.54
2022-10-05T03:50:45.501Z,20.52
2022-10-05T03:53:12.710Z,20.51
2022-10-05T03:55:39.066Z,20.53
2022-10-05T03:58:05.426Z,20.52
2022-10-05T04:00:31.760Z,20.54
2022-10-05T04:02:58.153Z,20.50
2022-10-05T04:05:24.589Z,20.50
2022-10-05T04:07:50.932Z,20.50
2022-10-05T04:10:17.271Z,20.48
2022-10-05T04:12:43.585Z,20.51
2022-10-05T04:15:13.160Z,20.48
2022-10-05T04:17:42.828Z,20.51
2022-10-05T04:20:09.166Z,20.54
2022-10-05T04:22:35.543Z,20.54
2022-10-05T04:25:01.880Z,20.55
2022-10-05T04:27:28.210Z,20.58
2022-10-05T04:29:54.575Z,20.60
2022-10-05T04:32:20.911Z,20.61
2022-10-05T04:34:47.238Z,20.59
2022-10-05T04:37:13.548Z,20.58
2022-10-05T04:39:39.896Z,20.57
2022-10-05T04:42:06.230Z,20.58
2022-10-05T04:44:32.780Z,20.59
2022-10-05T04:46:59.151Z,20.58
2022-10-05T04:49:26.369Z,20.62
2022-10-05T04:51:52.721Z,20.63
2022-10-05T04:54:19.038Z,20.61
2022-10-05T04:56:45.692Z,20.32
2022-10-05T04:59:13.993Z,20.10
2022-10-05T05:01:40.469Z,20.06
2022-10-05T05:04:06.883Z,20.04
2022-10-05T05:06:34.118Z,20.22
2022-10-05T05:09:01.321Z,20.28
2022-10-05T05:11:27.698Z,20.33
2022-10-05T05:13:54.035Z,20.37
2022-10-05T05:16:21.277Z,20.39
2022-10-05T05:18:47.722Z,20.39
2022-10-05T05:21:14.154Z,20.40
2022-10-05T05:23:40.469Z,20.42
2022-10-05T05:26:06.858Z,20.42
2022-10-05T05:28:33.287Z,20.41
2022-10-05T05:30:59.677Z,20.42
2022-10-05T05:33:26.056Z,20.43
2022-10-05T05:35:52.405Z,20.43
2022-10-05T05:38:18.734Z,20.44
2022-10-05T05:40:45.101Z,20.44
2022-10-05T05:43:11.439Z,20.45
2022-10-05T05:45:37.826Z,20.47
2022-10-05T05:48:04.157Z,20.47
2022-10-05T05:50:31.379Z,20.46
2022-10-05T05:52:58.002Z,20.47
2022-10-05T05:55:29.756Z,20.47
2022-10-05T05:57:56.930Z,20.49
2022-10-05T06:00:24.164Z,20.48
2022-10-05T06:02:50.573Z,20.48
2022-10-05T06:05:17.166Z,20.49
2022-10-05T06:07:43.658Z,20.50
2022-10-05T06:10:10.242Z,20.49
2022-10-05T06:12:36.887Z,20.51
2022-10-05T06:15:04.372Z,20.54
2022-10-05T06:17:31.000Z,20.50
2022-10-05T06:20:01.112Z,20.49
2022-10-05T06:22:30.576Z,20.48
2022-10-05T06:24:57.032Z,20.48
2022-10-05T06:27:23.674Z,20.49
2022-10-05T06:29:50.324Z,20.50
2022-10-05T06:32:19.714Z,20.48
2022-10-05T06:34:47.298Z,20.47
2022-10-05T06:37:13.925Z,20.44
2022-10-05T06:39:40.442Z,20.44
2022-10-05T06:42:07.195Z,20.43
2022-10-05T06:44:33.893Z,20.46
2022-10-05T06:47:00.573Z,20.48
2022-10-05T06:49:27.287Z,20.49
2022-10-05T06:51:54.085Z,20.48
2022-10-05T06:54:20.723Z,20.48
2022-10-05T06:56:49.575Z,20.51
2022-10-05T06:59:19.052Z,20.51
2022-10-05T07:01:47.597Z,20.53
2022-10-05T07:04:15.122Z,20.54
2022-10-05T07:06:42.366Z,20.53
2022-10-05T07:09:10.657Z,20.54
2022-10-05T07:11:39.817Z,20.56
2022-10-05T07:14:06.288Z,20.57
2022-10-05T07:16:32.736Z,20.55
2022-10-05T07:18:59.173Z,20.55
2022-10-05T07:21:25.738Z,20.58
2022-10-05T07:23:54.031Z,20.56
2022-10-05T07:26:20.448Z,20.58
2022-10-05T07:28:46.853Z,20.69
2022-10-05T07:31:13.313Z,20.74
2022-10-05T07:33:39.726Z,20.89
2022-10-05T07:36:06.955Z,20.82
2022-10-05T07:38:36.235Z,20.74
2022-10-05T07:41:02.659Z,20.70
2022-10-05T07:43:35.924Z,20.70
2022-10-05T07:46:15.503Z,20.71
2022-10-05T07:48:41.854Z,20.75
2022-10-05T07:51:08.243Z,20.76
2022-10-05T07:53:34.586Z,20.75
2022-10-05T07:56:00.934Z,20.74
2022-10-05T07:58:28.128Z,20.74
2022-10-05T08:00:57.293Z,20.74
2022-10-05T08:03:24.519Z,20.76
2022-10-05T08:05:50.889Z,20.76
2022-10-05T08:08:19.746Z,20.77
2022-10-05T08:10:47.792Z,20.77
2022-10-05T08:13:15.011Z,20.76
2022-10-05T08:15:42.323Z,20.77
2022-10-05T08:18:08.755Z,20.76
2022-10-05T08:20:35.080Z,20.78
2022-10-05T08:23:02.317Z,20.79
2022-10-05T08:25:28.651Z,20.81
2022-10-05T08:27:55.044Z,20.81
2022-10-05T08:30:21.410Z,20.82
2022-10-05T08:32:47.727Z,20.81
2022-10-05T08:35:14.035Z,20.82
2022-10-05T08:37:40.395Z,20.82
2022-10-05T08:40:06.735Z,20.85
2022-10-05T08:42:33.966Z,20.83
2022-10-05T08:45:00.300Z,20.84
2022-10-05T08:47:26.623Z,20.81
2022-10-05T08:49:52.978Z,20.80
2022-10-05T08:52:19.322Z,20.80
2022-10-05T08:54:45.672Z,20.79
2022-10-05T08:57:12.890Z,20.79
2022-10-05T08:59:39.229Z,20.93
2022-10-05T09:02:05.696Z,20.97
2022-10-05T09:04:32.046Z,20.96
2022-10-05T09:06:58.408Z,21.03
2022-10-05T09:09:24.766Z,21.12
2022-10-05T09:11:51.138Z,21.14
2022-10-05T09:14:17.491Z,21.04
2022-10-05T09:16:44.744Z,21.16
2022-10-05T09:19:11.973Z,21.15
2022-10-05T09:21:38.304Z,21.24
2022-10-05T09:24:05.542Z,21.09
2022-10-05T09:26:32.751Z,21.19
2022-10-05T09:28:59.944Z,21.10
2022-10-05T09:31:26.364Z,21.10
2022-10-05T09:33:52.806Z,21.19
2022-10-05T09:36:19.138Z,21.18
2022-10-05T09:38:46.339Z,21.08
2022-10-05T09:41:12.671Z,21.14
2022-10-05T09:43:39.876Z,21.06
2022-10-05T09:46:06.480Z,21.16
2022-10-05T09:48:32.834Z,21.08
2022-10-05T09:50:59.235Z,21.11
2022-10-05T09:53:26.428Z,21.17
2022-10-05T09:55:52.748Z,21.14
2022-10-05T09:58:19.143Z,20.94
2022-10-05T10:00:51.532Z,21.19
2022-10-05T10:03:25.807Z,21.15
2022-10-05T10:05:52.182Z,21.15
2022-10-05T10:08:19.465Z,21.13
2022-10-05T10:10:45.795Z,21.22
2022-10-05T10:13:12.981Z,21.19
2022-10-05T10:15:39.355Z,21.19
2022-10-05T10:18:05.713Z,21.17
2022-10-05T10:20:32.911Z,21.08
2022-10-05T10:22:59.265Z,21.15
2022-10-05T10:25:25.666Z,21.15
2022-10-05T10:27:52.622Z,21.06
2022-10-05T10:30:19.005Z,21.06
2022-10-05T10:32:45.375Z,21.07
2022-10-05T10:35:11.741Z,21.03
2022-10-05T10:37:38.075Z,21.03
2022-10-05T10:40:04.422Z,21.06
2022-10-05T10:42:31.631Z,21.07
2022-10-05T10:44:57.950Z,21.04
2022-10-05T10:47:24.341Z,21.11
2022-10-05T10:49:50.693Z,21.15
2022-10-05T10:52:17.038Z,21.06
2022-10-05T10:54:43.367Z,21.05
2022-10-05T10:57:10.563Z,21.10
2022-10-05T10:59:36.892Z,21.09
2022-10-05T11:02:03.285Z,21.05
2022-10-05T11:04:30.574Z,21.03
2022-10-05T11:06:56.901Z,21.07
2022-10-05T11:09:23.252Z,21.06
2022-10-05T11:11:49.797Z,21.02
2022-10-05T11:14:17.338Z,20.94
2022-10-05T11:16:43.698Z,21.00
2022-10-05T11:19:10.052Z,21.04
2022-10-05T11:21:36.431Z,21.14
2022-10-05T11:24:02.774Z,21.05
2022-10-05T11:26:29.214Z,21.05
2022-10-05T11:28:55.566Z,21.13
2022-10-05T11:31:21.921Z,21.15
2022-10-05T11:33:48.379Z,21.08
2022-10-05T11:36:14.747Z,21.14
2022-10-05T11:38:41.098Z,21.20
2022-10-05T11:41:07.610Z,21.24
2022-10-05T11:43:33.931Z,21.22
2022-10-05T11:46:00.331Z,21.34
2022-10-05T11:48:26.694Z,21.29
2022-10-05T11:50:53.109Z,21.33
2022-10-05T11:53:19.441Z,21.21
2022-10-05T11:55:45.786Z,21.15
2022-10-05T11:58:13.013Z,21.14
2022-10-05T12:00:39.337Z,21.13
2022-10-05T12:03:05.793Z,21.13
2022-10-05T12:05:32.164Z,21.13
2022-10-05T12:07:58.576Z,21.04
2022-10-05T12:10:24.890Z,21.01
2022-10-05T12:12:51.212Z,20.99
2022-10-05T12:15:17.700Z,20.96
2022-10-05T12:17:44.058Z,20.93
2022-10-05T12:20:10.395Z,20.92
2022-10-05T12:22:36.770Z,20.89
2022-10-05T12:25:03.307Z,20.80
2022-10-05T12:27:29.713Z,20.83
2022-10-05T12:29:56.163Z,20.83
2022-10-05T12:32:22.709Z,20.82
2022-10-05T12:34:49.979Z,20.82
2022-10-05T12:37:18.278Z,20.83
2022-10-05T12:39:46.629Z,20.90
2022-10-05T12:42:13.048Z,20.84
2022-10-05T12:44:42.208Z,20.80
2022-10-05T12:47:08.643Z,20.80
2022-10-05T12:49:35.031Z,20.80
2022-10-05T12:52:01.455Z,20.69
2022-10-05T12:54:28.666Z,20.62
2022-10-05T12:56:55.110Z,20.69
2022-10-05T12:59:21.500Z,20.74
2022-10-05T13:01:47.935Z,20.71
2022-10-05T13:04:14.347Z,20.65
2022-10-05T13:06:40.690Z,20.69
2022-10-05T13:09:07.117Z,20.70
2022-10-05T13:11:33.481Z,20.70
2022-10-05T13:13:59.850Z,20.78
2022-10-05T13:16:26.205Z,20.86
2022-10-05T13:18:52.890Z,20.84
2022-10-05T13:21:20.110Z,20.84
2022-10-05T13:23:46.418Z,20.85
2022-10-05T13:26:13.057Z,20.90
2022-10-05T13:28:39.674Z,20.92
2022-10-05T13:31:06.198Z,20.94
2022-10-05T13:33:35.410Z,20.92
2022-10-05T13:36:01.841Z,20.96
2022-10-05T13:38:28.346Z,20.90
2022-10-05T13:40:57.515Z,20.91
2022-10-05T13:43:23.952Z,20.86
2022-10-05T13:45:52.778Z,20.90
2022-10-05T13:48:22.179Z,20.97
2022-10-05T13:50:49.401Z,20.93
2022-10-05T13:53:15.742Z,20.91
2022-10-05T13:55:42.154Z,20.87
2022-10-05T13:58:09.417Z,20.84
2022-10-05T14:00:38.588Z,20.85
2022-10-05T14:03:04.962Z,20.90
2022-10-05T14:05:32.208Z,20.85
2022-10-05T14:07:58.667Z,20.84
2022-10-05T14:10:25.063Z,20.87
2022-10-05T14:12:52.290Z,20.83
2022-10-05T14:15:18.684Z,20.84
2022-10-05T14:17:45.908Z,20.86
2022-10-05T14:20:13.136Z,20.84
2022-10-05T14:22:39.524Z,20.86
2022-10-05T14:25:05.951Z,20.95
2022-10-05T14:27:32.304Z,20.95
2022-10-05T14:29:58.794Z,20.91
2022-10-05T14:32:25.145Z,20.91
2022-10-05T14:34:51.448Z,20.87
2022-10-05T14:37:18.677Z,20.95
2022-10-05T14:39:45.906Z,20.96
2022-10-05T14:42:12.331Z,20.99
2022-10-05T14:44:39.548Z,21.01
2022-10-05T14:47:05.911Z,21.10
2022-10-05T14:49:32.325Z,21.20
2022-10-05T14:51:59.811Z,21.22
2022-10-05T14:54:26.310Z,21.25
2022-10-05T14:56:55.422Z,21.21
2022-10-05T14:59:23.755Z,21.15
2022-10-05T15:01:50.220Z,21.06
2022-10-05T15:04:16.665Z,21.03
2022-10-05T15:06:43.277Z,20.94
2022-10-05T15:09:17.272Z,20.87
2022-10-05T15:11:44.327Z,20.86
2022-10-05T15:14:10.754Z,20.87
2022-10-05T15:16:38.041Z,20.84
2022-10-05T15:19:05.303Z,20.82
2022-10-05T15:21:31.768Z,20.81
2022-10-05T15:23:58.208Z,20.91
2022-10-05T15:26:25.448Z,21.14
2022-10-05T15:28:51.780Z,21.34
2022-10-05T15:31:18.196Z,21.47
2022-10-05T15:33:44.690Z,21.50
2022-10-05T15:36:11.528Z,21.70
2022-10-05T15:38:37.951Z,21.78
2022-10-05T15:41:04.700Z,21.87
2022-10-05T15:43:31.176Z,21.90
2022-10-05T15:45:57.592Z,21.93
2022-10-05T15:48:24.437Z,22.00
2022-10-05T15:50:51.129Z,21.97
2022-10-05T15:53:17.480Z,21.94
2022-10-05T15:55:44.059Z,21.92
2022-10-05T15:58:10.464Z,21.96
2022-10-05T16:00:36.900Z,22.00
2022-10-05T16:03:03.267Z,22.08
2022-10-05T16:05:29.578Z,22.13
2022-10-05T16:07:55.949Z,22.05
2022-10-05T16:10:22.503Z,21.79
2022-10-05T16:12:49.037Z,21.65
2022-10-05T16:15:15.524Z,21.65
2022-10-05T16:17:42.137Z,21.70
2022-10-05T16:20:08.713Z,21.66
2022-10-05T16:22:36.406Z,21.55
2022-10-05T16:25:05.236Z,21.51
2022-10-05T16:27:31.655Z,21.48
2022-10-05T16:29:58.025Z,21.41
2022-10-05T16:32:24.372Z,21.42
2022-10-05T16:34:51.123Z,21.41
2022-10-05T16:37:17.506Z,21.44
2022-10-05T16:39:43.872Z,21.50
2022-10-05T16:42:11.175Z,21.48
2022-10-05T16:44:37.774Z,21.46
2022-10-05T16:47:07.210Z,21.46
2022-10-05T16:49:34.524Z,21.48
2022-10-05T16:52:01.267Z,21.45
2022-10-05T16:54:27.776Z,21.46
2022-10-05T16:56:56.161Z,21.44
2022-10-05T16:59:23.959Z,21.48
2022-10-05T17:01:50.611Z,21.47
2022-10-05T17:04:17.219Z,21.44
2022-10-05T17:06:43.866Z,21.42
2022-10-05T17:09:10.497Z,21.48
2022-10-05T17:11:36.992Z,21.42
2022-10-05T17:14:03.708Z,21.46
2022-10-05T17:16:30.498Z,21.48
2022-10-05T17:18:57.771Z,21.46
2022-10-05T17:21:26.092Z,21.41
2022-10-05T17:23:54.328Z,21.51
2022-10-05T17:26:21.534Z,21.55
2022-10-05T17:28:48.080Z,21.66
2022-10-05T17:31:15.330Z,21.63
2022-10-05T17:33:43.037Z,21.72
2022-10-05T17:36:10.619Z,21.72
2022-10-05T17:38:38.324Z,21.93
2022-10-05T17:41:04.969Z,21.83
2022-10-05T17:43:32.436Z,21.83
2022-10-05T17:45:58.959Z,21.83
2022-10-05T17:48:26.816Z,21.91
2022-10-05T17:50:54.699Z,21.93
2022-10-05T17:53:21.758Z,21.84
2022-10-05T17:55:48.399Z,21.85
2022-10-05T17:58:15.731Z,21.97
2022-10-05T18:00:42.366Z,21.92
2022-10-05T18:03:09.237Z,21.88
2022-10-05T18:05:35.942Z,21.93
2022-10-05T18:08:03.209Z,21.80
2022-10-05T18:10:29.733Z,21.90
2022-10-05T18:12:57.479Z,21.88
2022-10-05T18:15:24.179Z,21.91
2022-10-05T18:17:51.030Z,21.85
2022-10-05T18:20:18.522Z,21.88
2022-10-05T18:22:45.429Z,21.91
2022-10-05T18:25:12.163Z,22.06
2022-10-05T18:27:39.091Z,22.22
2022-10-05T18:30:05.756Z,22.23
2022-10-05T18:32:32.394Z,22.19
2022-10-05T18:35:02.005Z,22.13
2022-10-05T18:37:29.078Z,22.19
2022-10-05T18:39:56.099Z,22.12
2022-10-05T18:42:23.051Z,22.16
2022-10-05T18:44:50.059Z,22.33
2022-10-05T18:47:16.944Z,22.17
2022-10-05T18:49:43.823Z,21.99
2022-10-05T18:52:11.455Z,21.83
2022-10-05T18:54:38.085Z,21.84
2022-10-05T18:57:04.917Z,21.80
2022-10-05T18:59:31.554Z,21.80
2022-10-05T19:01:59.932Z,21.77
2022-10-05T19:04:30.403Z,21.71
2022-10-05T19:06:57.307Z,21.69
2022-10-05T19:09:26.944Z,21.72
2022-10-05T19:11:56.008Z,21.69
2022-10-05T19:14:23.031Z,21.70
2022-10-05T19:16:53.620Z,21.70
2022-10-05T19:19:27.210Z,21.64
2022-10-05T19:21:56.361Z,21.60
2022-10-05T19:24:23.104Z,21.58
2022-10-05T19:26:49.620Z,21.60
2022-10-05T19:29:16.561Z,21.63
2022-10-05T19:31:43.255Z,21.54
2022-10-05T19:34:10.038Z,21.53
2022-10-05T19:36:39.697Z,21.53
2022-10-05T19:39:07.058Z,21.51
2022-10-05T19:41:34.585Z,21.54
2022-10-05T19:44:01.962Z,21.55
2022-10-05T19:46:28.540Z,21.59
2022-10-05T19:48:55.382Z,21.54
2022-10-05T19:51:23.991Z,21.53
2022-10-05T19:53:50.477Z,21.53
2022-10-05T19:56:16.852Z,21.55
2022-10-05T19:58:45.157Z,21.50
2022-10-05T20:01:11.544Z,21.55
2022-10-05T20:03:39.791Z,21.55
2022-10-05T20:06:09.125Z,21.53
2022-10-05T20:08:38.324Z,21.50
2022-10-05T20:11:07.492Z,21.46
2022-10-05T20:13:35.006Z,21.48
2022-10-05T20:16:02.240Z,21.51
2022-10-05T20:18:28.937Z,21.45
2022-10-05T20:20:55.498Z,21.43
2022-10-05T20:23:21.832Z,21.63
2022-10-05T20:25:48.186Z,21.72
2022-10-05T20:28:14.553Z,21.77
2022-10-05T20:30:40.936Z,21.84
2022-10-05T20:33:07.257Z,21.81
2022-10-05T20:35:33.590Z,21.79
2022-10-05T20:37:59.951Z,21.83
2022-10-05T20:40:26.374Z,21.82
2022-10-05T20:42:52.704Z,21.85
2022-10-05T20:45:19.932Z,21.83
2022-10-05T20:47:46.255Z,21.74
2022-10-05T20:50:13.434Z,21.93
2022-10-05T20:52:39.792Z,21.86
2022-10-05T20:55:06.127Z,21.94
2022-10-05T20:57:32.522Z,21.98
2022-10-05T20:59:58.836Z,21.83
2022-10-05T21:02:25.155Z,21.90
2022-10-05T21:04:51.594Z,21.90
2022-10-05T21:07:18.828Z,21.89
2022-10-05T21:09:45.213Z,21.91
2022-10-05T21:12:11.559Z,22.06
2022-10-05T21:14:37.931Z,21.95
2022-10-05T21:17:04.319Z,21.97
2022-10-05T21:19:30.635Z,22.19
2022-10-05T21:21:56.989Z,22.23
2022-10-05T21:24:23.301Z,22.22
2022-10-05T21:26:49.643Z,22.01
2022-10-05T21:29:15.974Z,21.94
2022-10-05T21:31:42.370Z,21.77
2022-10-05T21:34:09.612Z,21.69
2022-10-05T21:36:35.971Z,21.65
2022-10-05T21:39:03.151Z,21.61
2022-10-05T21:41:29.526Z,21.62
2022-10-05T21:43:55.855Z,21.60
2022-10-05T21:46:22.205Z,21.55
2022-10-05T21:48:48.533Z,21.59
2022-10-05T21:51:15.717Z,21.54
2022-10-05T21:53:42.052Z,21.53
2022-10-05T21:56:09.247Z,21.49
2022-10-05T21:58:35.561Z,21.47
2022-10-05T22:01:02.006Z,21.44
2022-10-05T22:03:28.450Z,21.45
2022-10-05T22:05:54.837Z,21.50
2022-10-05T22:08:21.198Z,21.50
2022-10-05T22:10:47.532Z,21.46
2022-10-05T22:13:13.941Z,21.48
2022-10-05T22:15:40.294Z,21.46
2022-10-05T22:18:06.674Z,21.44
2022-10-05T22:20:33.005Z,21.43
2022-10-05T22:22:59.300Z,21.46
2022-10-05T22:25:25.651Z,21.44
2022-10-05T22:27:51.973Z,21.44
2022-10-05T22:30:18.302Z,21.44
2022-10-05T22:32:44.625Z,21.45
2022-10-05T22:35:12.061Z,21.43
2022-10-05T22:37:38.425Z,21.43
2022-10-05T22:40:04.796Z,21.39
2022-10-05T22:42:31.096Z,21.41
2022-10-05T22:44:57.473Z,21.39
2022-10-05T22:47:23.809Z,21.37
2022-10-05T22:49:50.157Z,21.37
2022-10-05T22:52:16.498Z,21.35
2022-10-05T22:54:42.806Z,21.32
2022-10-05T22:57:10.051Z,21.34
2022-10-05T22:59:36.358Z,21.33
2022-10-05T23:02:02.836Z,21.32
2022-10-05T23:04:29.271Z,21.33
2022-10-05T23:06:55.590Z,21.33
2022-10-05T23:09:21.926Z,21.31
2022-10-05T23:11:48.263Z,21.34
2022-10-05T23:14:15.487Z,21.34
2022-10-05T23:16:41.861Z,21.33
2022-10-05T23:19:08.224Z,21.33
2022-10-05T23:21:34.763Z,21.32
2022-10-05T23:24:01.097Z,21.32
2022-10-05T23:26:27.437Z,21.28
2022-10-05T23:28:53.759Z,21.28
2022-10-05T23:31:20.113Z,21.25
2022-10-05T23:33:46.450Z,21.23
2022-10-05T23:36:13.648Z,21.23
2022-10-05T23:38:40.027Z,21.22
2022-10-05T23:41:06.597Z,21.24
2022-10-05T23:43:32.995Z,21.22
2022-10-05T23:45:59.375Z,21.17
2022-10-05T23:48:26.154Z,21.18
2022-10-05T23:50:52.681Z,21.20
2022-10-05T23:53:19.012Z,21.21
2022-10-05T23:55:45.412Z,21.20
2022-10-05T23:58:12.593Z,21.17
